createdAt,value
2023-02-14T00:01:40.587Z,48.30
2023-02-14T00:04:10.089Z,48.00
2023-02-14T00:06:39.017Z,46.67
2023-02-14T00:09:07.924Z,45.43
2023-02-14T00:11:35.996Z,45.00
2023-02-14T00:14:21.656Z,47.30
2023-02-14T00:16:49.754Z,45.83
2023-02-14T00:19:21.135Z,45.10
2023-02-14T00:21:49.318Z,45.17
2023-02-14T00:24:20.509Z,45.50
2023-02-14T00:26:49.460Z,43.30
2023-02-14T00:29:20.713Z,45.50
2023-02-14T00:31:48.986Z,44.47
2023-02-14T00:34:20.374Z,43.53
2023-02-14T00:36:48.999Z,43.57
2023-02-14T00:39:18.903Z,43.93
2023-02-14T00:41:47.571Z,43.33
2023-02-14T00:44:18.362Z,43.20
2023-02-14T00:46:46.728Z,41.90
2023-02-14T00:49:14.905Z,41.93
2023-02-14T00:51:44.338Z,41.83
2023-02-14T00:54:12.477Z,39.77
2023-02-14T00:56:40.581Z,39.73
2023-02-14T00:59:10.652Z,39.20
2023-02-14T01:01:38.912Z,40.17
2023-02-14T01:04:07.713Z,39.03
2023-02-14T01:06:35.932Z,38.70
2023-02-14T01:09:05.540Z,37.27
2023-02-14T01:11:34.506Z,37.87
2023-02-14T01:14:02.555Z,38.00
2023-02-14T01:16:31.524Z,36.93
2023-02-14T01:19:01.449Z,36.50
2023-02-14T01:21:32.598Z,37.43
2023-02-14T01:24:02.921Z,37.50
2023-02-14T01:26:32.501Z,38.07
2023-02-14T01:29:03.022Z,38.53
2023-02-14T01:31:34.315Z,37.77
2023-02-14T01:34:03.015Z,38.53
2023-02-14T01:36:33.424Z,40.37
2023-02-14T01:39:03.434Z,39.27
2023-02-14T01:41:35.964Z,41.17
2023-02-14T01:44:07.425Z,40.97
2023-02-14T01:46:37.051Z,40.97
2023-02-14T01:49:11.671Z,39.30
2023-02-14T01:51:44.315Z,40.27
2023-02-14T01:54:13.359Z,39.20
2023-02-14T01:56:46.892Z,40.03
2023-02-14T01:59:20.678Z,41.27
2023-02-14T02:01:51.641Z,39.97
2023-02-14T02:04:24.989Z,39.93
2023-02-14T02:06:57.472Z,40.60
2023-02-14T02:09:34.210Z,40.57
2023-02-14T02:12:04.877Z,41.27
2023-02-14T02:14:34.174Z,41.10
2023-02-14T02:17:18.840Z,42.70
2023-02-14T02:20:17.643Z,42.97
2023-02-14T02:23:13.612Z,43.40
2023-02-14T02:26:34.754Z,42.83
2023-02-14T02:29:29.035Z,43.60
2023-02-14T02:32:30.418Z,44.20
2023-02-14T02:35:37.077Z,45.43
2023-02-14T02:38:21.431Z,43.17
2023-02-14T02:41:03.053Z,45.60
2023-02-14T02:43:44.728Z,44.07
2023-02-14T02:46:40.127Z,45.23
2023-02-14T02:49:39.537Z,44.77
2023-02-14T02:52:35.377Z,45.27
2023-02-14T02:55:09.047Z,45.23
2023-02-14T02:57:40.397Z,44.83
2023-02-14T03:00:13.490Z,44.87
2023-02-14T03:03:03.004Z,44.13
2023-02-14T03:05:35.222Z,43.53
2023-02-14T03:08:05.697Z,43.13
2023-02-14T03:10:37.408Z,43.60
2023-02-14T03:13:28.440Z,41.23
2023-02-14T03:16:31.307Z,42.57
2023-02-14T03:19:16.607Z,40.50
2023-02-14T03:21:52.392Z,41.50
2023-02-14T03:24:28.831Z,39.47
2023-02-14T03:27:05.622Z,41.03
2023-02-14T03:29:45.513Z,39.83
2023-02-14T03:32:21.161Z,39.73
2023-02-14T03:34:55.825Z,40.10
2023-02-14T03:37:30.110Z,38.97
2023-02-14T03:40:06.724Z,39.20
2023-02-14T03:42:40.524Z,38.07
2023-02-14T03:45:13.474Z,38.63
2023-02-14T03:47:44.534Z,37.90
2023-02-14T03:50:17.631Z,38.50
2023-02-14T03:52:47.646Z,39.23
2023-02-14T03:55:23.784Z,37.43
2023-02-14T03:57:57.319Z,37.53
2023-02-14T04:00:25.956Z,37.90
2023-02-14T04:02:58.338Z,38.60
2023-02-14T04:05:28.877Z,37.57
2023-02-14T04:07:59.224Z,37.37
2023-02-14T04:10:28.762Z,39.73
2023-02-14T04:12:56.844Z,37.67
2023-02-14T04:15:24.916Z,38.77
2023-02-14T04:18:10.199Z,39.50
2023-02-14T04:20:38.332Z,39.03
2023-02-14T04:23:06.374Z,39.77
2023-02-14T04:25:35.787Z,39.07
2023-02-14T04:28:03.849Z,38.67
2023-02-14T04:30:31.930Z,38.30
2023-02-14T04:33:00.017Z,39.23
2023-02-14T04:35:28.102Z,37.87
2023-02-14T04:37:56.136Z,38.93
2023-02-14T04:40:24.137Z,38.10
2023-02-14T04:42:53.627Z,37.77
2023-02-14T04:45:21.752Z,38.73
2023-02-14T04:47:50.062Z,37.93
2023-02-14T04:50:19.275Z,39.77
2023-02-14T04:52:47.368Z,39.10
2023-02-14T04:55:15.544Z,40.83
2023-02-14T04:57:43.583Z,42.27
2023-02-14T05:00:14.556Z,41.87
2023-02-14T05:02:42.631Z,42.07
2023-02-14T05:05:10.970Z,41.87
2023-02-14T05:07:39.022Z,44.07
2023-02-14T05:10:07.884Z,43.07
2023-02-14T05:12:36.181Z,45.77
2023-02-14T05:15:04.373Z,44.80
2023-02-14T05:17:33.855Z,45.13
2023-02-14T05:20:01.921Z,46.13
2023-02-14T05:22:30.067Z,46.13
2023-02-14T05:24:58.365Z,44.90
2023-02-14T05:27:26.526Z,45.23
2023-02-14T05:29:54.664Z,45.73
2023-02-14T05:32:22.779Z,47.70
2023-02-14T05:34:52.152Z,47.57
2023-02-14T05:37:20.296Z,46.33
2023-02-14T05:39:48.360Z,47.20
2023-02-14T05:42:16.530Z,49.30
2023-02-14T05:44:44.725Z,48.73
2023-02-14T05:47:13.294Z,48.50
2023-02-14T05:49:41.432Z,49.10
2023-02-14T05:52:11.369Z,47.80
2023-02-14T05:54:39.411Z,48.77
2023-02-14T05:57:07.571Z,49.53
2023-02-14T05:59:35.581Z,47.80
2023-02-14T06:02:03.818Z,49.77
2023-02-14T06:04:31.929Z,48.57
2023-02-14T06:07:00.000Z,49.73
2023-02-14T06:09:29.453Z,49.90
2023-02-14T06:11:57.501Z,49.80
2023-02-14T06:14:25.914Z,50.17
2023-02-14T06:16:54.008Z,51.43
2023-02-14T06:19:22.237Z,50.57
2023-02-14T06:21:50.358Z,50.50
2023-02-14T06:24:18.555Z,50.10
2023-02-14T06:26:47.990Z,50.60
2023-02-14T06:29:18.414Z,50.23
2023-02-14T06:31:46.630Z,51.33
2023-02-14T06:34:16.130Z,51.30
2023-02-14T06:36:44.303Z,50.33
2023-02-14T06:39:12.412Z,51.60
2023-02-14T06:41:40.438Z,53.07
2023-02-14T06:44:10.616Z,51.77
2023-02-14T06:46:38.773Z,52.90
2023-02-14T06:49:06.800Z,48.63
2023-02-14T06:51:34.940Z,48.77
2023-02-14T06:54:02.988Z,49.73
2023-02-14T06:56:31.107Z,51.20
2023-02-14T06:58:59.130Z,50.67
2023-02-14T07:01:28.573Z,50.73
2023-02-14T07:03:56.613Z,56.57
2023-02-14T07:06:24.733Z,52.67
2023-02-14T07:08:52.923Z,52.77
2023-02-14T07:11:21.080Z,51.53
2023-02-14T07:13:49.575Z,52.50
2023-02-14T07:16:17.850Z,53.00
2023-02-14T07:18:47.343Z,53.37
2023-02-14T07:21:15.505Z,54.63
2023-02-14T07:23:46.390Z,53.10
2023-02-14T07:26:18.186Z,55.13
2023-02-14T07:28:46.508Z,54.83
2023-02-14T07:31:14.671Z,55.10
2023-02-14T07:33:42.785Z,55.87
2023-02-14T07:36:12.902Z,53.37
2023-02-14T07:38:41.041Z,53.70
2023-02-14T07:41:09.043Z,52.50
2023-02-14T07:43:37.138Z,50.37
2023-02-14T07:46:05.413Z,51.37
2023-02-14T07:48:34.447Z,52.50
2023-02-14T07:51:03.402Z,52.43
2023-02-14T07:53:32.982Z,51.67
2023-02-14T07:56:01.166Z,50.33
2023-02-14T07:58:29.200Z,50.50
2023-02-14T08:00:57.334Z,49.73
2023-02-14T08:03:25.567Z,52.00
2023-02-14T08:05:57.388Z,49.90
2023-02-14T08:08:26.927Z,48.60
2023-02-14T08:10:56.503Z,47.93
2023-02-14T08:13:24.536Z,49.47
2023-02-14T08:16:15.599Z,49.40
2023-02-14T08:18:44.483Z,47.97
2023-02-14T08:21:12.493Z,46.90
2023-02-14T08:23:40.563Z,46.73
2023-02-14T08:26:10.442Z,46.83
2023-02-14T08:28:38.444Z,44.63
2023-02-14T08:31:06.777Z,43.73
2023-02-14T08:33:34.881Z,43.27
2023-02-14T08:36:03.066Z,43.03
2023-02-14T08:38:31.208Z,43.73
2023-02-14T08:41:03.924Z,43.10
2023-02-14T08:43:35.356Z,40.93
2023-02-14T08:46:03.575Z,41.63
2023-02-14T08:48:31.818Z,42.60
2023-02-14T08:51:00.195Z,42.40
2023-02-14T08:53:28.578Z,40.77
2023-02-14T08:55:56.605Z,41.30
2023-02-14T08:58:24.737Z,39.90
2023-02-14T09:00:55.742Z,40.03
2023-02-14T09:03:23.952Z,38.93
2023-02-14T09:05:52.298Z,36.83
2023-02-14T09:08:20.607Z,36.63
2023-02-14T09:10:48.689Z,35.13
2023-02-14T09:13:16.814Z,35.50
2023-02-14T09:15:45.108Z,37.30
2023-02-14T09:18:15.271Z,36.03
2023-02-14T09:20:44.465Z,35.30
2023-02-14T09:23:12.476Z,36.83
2023-02-14T09:25:41.169Z,35.03
2023-02-14T09:28:09.194Z,31.83
2023-02-14T09:30:37.257Z,32.00
2023-02-14T09:33:05.511Z,31.50
2023-02-14T09:35:52.563Z,30.40
2023-02-14T09:38:20.875Z,31.67
2023-02-14T09:40:50.647Z,26.70
2023-02-14T09:43:24.917Z,26.90
2023-02-14T09:45:56.513Z,25.00
2023-02-14T09:48:32.530Z,25.10
2023-02-14T09:51:05.079Z,23.30
2023-02-14T09:53:36.423Z,22.87
2023-02-14T09:56:12.081Z,23.27
2023-02-14T09:58:47.103Z,21.87
2023-02-14T10:01:23.415Z,21.00
2023-02-14T10:04:22.308Z,20.27
2023-02-14T10:06:56.109Z,19.17
2023-02-14T10:09:42.649Z,21.13
2023-02-14T10:12:17.982Z,21.40
2023-02-14T10:14:46.586Z,19.93
2023-02-14T10:17:19.542Z,17.53
2023-02-14T10:19:52.810Z,17.70
2023-02-14T10:22:27.404Z,16.93
2023-02-14T10:25:01.311Z,16.37
2023-02-14T10:27:34.030Z,15.80
2023-02-14T10:30:03.509Z,16.13
2023-02-14T10:32:38.960Z,15.87
2023-02-14T10:35:17.298Z,14.93
2023-02-14T10:37:59.003Z,14.97
2023-02-14T10:40:46.999Z,15.37
2023-02-14T10:43:24.670Z,15.53
2023-02-14T10:46:03.688Z,15.93
2023-02-14T10:48:44.149Z,15.43
2023-02-14T10:51:17.918Z,15.63
2023-02-14T10:54:01.824Z,14.77
2023-02-14T10:56:36.641Z,15.37
2023-02-14T10:59:16.412Z,14.97
2023-02-14T11:01:45.104Z,14.90
2023-02-14T11:04:14.761Z,14.17
2023-02-14T11:06:42.822Z,14.30
2023-02-14T11:09:13.029Z,13.07
2023-02-14T11:11:44.973Z,12.87
2023-02-14T11:14:24.887Z,14.87
2023-02-14T11:16:54.662Z,13.20
2023-02-14T11:19:26.340Z,14.00
2023-02-14T11:21:55.880Z,13.17
2023-02-14T11:24:31.440Z,13.03
2023-02-14T11:27:01.796Z,13.73
2023-02-14T11:29:32.602Z,13.50
2023-02-14T11:32:09.762Z,14.30
2023-02-14T11:34:40.552Z,14.17
2023-02-14T11:37:26.263Z,15.13
2023-02-14T11:39:59.083Z,13.50
2023-02-14T11:42:38.222Z,13.57
2023-02-14T11:45:07.637Z,13.63
2023-02-14T11:47:41.515Z,13.90
2023-02-14T11:50:23.362Z,12.87
2023-02-14T11:52:54.181Z,14.20
2023-02-14T11:55:29.555Z,12.70
2023-02-14T11:57:58.813Z,11.90
2023-02-14T12:00:27.912Z,13.73
2023-02-14T12:02:57.127Z,13.00
2023-02-14T12:05:29.391Z,14.37
2023-02-14T12:08:01.070Z,13.47
2023-02-14T12:10:31.874Z,14.33
2023-02-14T12:13:01.699Z,13.57
2023-02-14T12:15:36.874Z,14.23
2023-02-14T12:18:52.833Z,14.23
2023-02-14T12:21:42.292Z,15.10
2023-02-14T12:24:19.890Z,13.47
2023-02-14T12:26:58.437Z,14.53
2023-02-14T12:29:33.335Z,12.70
2023-02-14T12:32:09.385Z,13.97
2023-02-14T12:34:37.723Z,13.33
2023-02-14T12:37:18.180Z,13.33
2023-02-14T12:40:20.394Z,13.33
2023-02-14T12:43:11.633Z,13.80
2023-02-14T12:46:05.135Z,13.53
2023-02-14T12:48:44.205Z,13.93
2023-02-14T12:51:18.475Z,11.97
2023-02-14T12:54:06.194Z,12.40
2023-02-14T12:56:47.112Z,12.87
2023-02-14T12:59:28.933Z,12.63
2023-02-14T13:02:34.420Z,11.60
2023-02-14T13:05:07.970Z,12.07
2023-02-14T13:07:52.699Z,11.70
2023-02-14T13:10:33.815Z,13.07
2023-02-14T13:13:07.783Z,13.20
2023-02-14T13:15:45.602Z,12.50
2023-02-14T13:18:20.185Z,12.70
2023-02-14T13:20:53.501Z,11.80
2023-02-14T13:23:28.731Z,11.77
2023-02-14T13:26:02.675Z,11.53
2023-02-14T13:28:33.037Z,10.83
2023-02-14T13:31:03.355Z,13.17
2023-02-14T13:33:36.840Z,12.03
2023-02-14T13:36:09.222Z,11.90
2023-02-14T13:38:44.277Z,12.00
2023-02-14T13:41:13.460Z,12.47
2023-02-14T13:43:53.585Z,11.43
2023-02-14T13:46:42.329Z,12.93
2023-02-14T13:49:27.239Z,12.90
2023-02-14T13:51:57.344Z,14.60
2023-02-14T13:54:41.135Z,12.63
2023-02-14T13:57:36.681Z,12.93
2023-02-14T14:00:50.371Z,12.07
2023-02-14T14:03:57.307Z,12.67
2023-02-14T14:06:25.449Z,11.87
2023-02-14T14:08:57.110Z,12.83
2023-02-14T14:11:59.728Z,12.57
2023-02-14T14:14:36.334Z,12.77
2023-02-14T14:17:20.744Z,11.90
2023-02-14T14:19:50.513Z,11.70
2023-02-14T14:22:20.000Z,12.53
2023-02-14T14:24:57.451Z,13.17
2023-02-14T14:27:30.851Z,12.77
2023-02-14T14:30:01.147Z,13.17
2023-02-14T14:32:31.528Z,13.83
2023-02-14T14:35:03.915Z,14.50
2023-02-14T14:37:34.894Z,12.50
2023-02-14T14:40:06.616Z,12.60
2023-02-14T14:42:43.014Z,13.60
2023-02-14T14:45:22.988Z,13.60
2023-02-14T14:47:54.367Z,14.70
2023-02-14T14:50:26.520Z,13.47
2023-02-14T14:52:57.016Z,14.53
2023-02-14T14:55:27.676Z,13.70
2023-02-14T14:57:58.536Z,14.80
2023-02-14T15:00:29.619Z,16.70
2023-02-14T15:03:04.149Z,17.60
2023-02-14T15:05:36.158Z,16.53
2023-02-14T15:08:20.979Z,17.63
2023-02-14T15:10:54.448Z,17.27
2023-02-14T15:13:48.553Z,19.63
2023-02-14T15:16:20.455Z,18.30
2023-02-14T15:18:49.486Z,17.67
2023-02-14T15:21:19.101Z,17.77
2023-02-14T15:23:47.866Z,17.53
2023-02-14T15:26:24.330Z,17.63
2023-02-14T15:28:58.116Z,20.13
2023-02-14T15:31:30.843Z,19.10
2023-02-14T15:34:01.509Z,19.07
2023-02-14T15:36:32.644Z,18.77
2023-02-14T15:39:03.521Z,19.27
2023-02-14T15:41:31.807Z,21.30
2023-02-14T15:44:00.585Z,20.47
2023-02-14T15:46:35.321Z,19.87
2023-02-14T15:49:10.751Z,19.23
2023-02-14T15:51:41.050Z,20.43
2023-02-14T15:54:20.021Z,19.80
2023-02-14T15:56:51.438Z,20.73
2023-02-14T15:59:22.131Z,22.90
2023-02-14T16:01:52.965Z,24.43
2023-02-14T16:04:25.796Z,22.17
2023-02-14T16:07:22.674Z,25.00
2023-02-14T16:09:51.716Z,26.23
2023-02-14T16:12:32.471Z,27.17
2023-02-14T16:15:04.801Z,27.63
2023-02-14T16:17:34.823Z,28.43
2023-02-14T16:20:23.629Z,31.43
2023-02-14T16:22:53.210Z,29.27
2023-02-14T16:25:21.789Z,28.20
2023-02-14T16:27:49.887Z,25.13
2023-02-14T16:30:19.329Z,25.90
2023-02-14T16:32:53.745Z,25.70
2023-02-14T16:35:22.910Z,26.50
2023-02-14T16:37:53.353Z,27.03
2023-02-14T16:40:26.375Z,27.17
2023-02-14T16:42:54.954Z,27.93
2023-02-14T16:45:23.285Z,27.67
2023-02-14T16:47:51.558Z,27.23
2023-02-14T16:50:20.479Z,27.10
2023-02-14T16:52:52.688Z,27.77
2023-02-14T16:55:21.156Z,28.90
2023-02-14T16:57:51.424Z,32.27
2023-02-14T17:00:20.134Z,32.73
2023-02-14T17:02:48.416Z,34.17
2023-02-14T17:05:16.640Z,34.77
2023-02-14T17:07:45.367Z,33.87
2023-02-14T17:10:19.700Z,33.50
2023-02-14T17:12:50.066Z,31.90
2023-02-14T17:15:24.628Z,31.30
2023-02-14T17:17:58.038Z,33.10
2023-02-14T17:20:26.279Z,30.80
2023-02-14T17:22:55.584Z,30.77
2023-02-14T17:25:25.527Z,31.37
2023-02-14T17:27:53.942Z,30.37
2023-02-14T17:30:22.094Z,34.97
2023-02-14T17:32:50.831Z,35.20
2023-02-14T17:35:20.198Z,34.90
2023-02-14T17:37:48.469Z,33.63
2023-02-14T17:40:16.729Z,35.43
2023-02-14T17:42:46.229Z,35.03
2023-02-14T17:45:14.286Z,32.40
2023-02-14T17:47:43.563Z,35.53
2023-02-14T17:50:13.155Z,36.77
2023-02-14T17:52:41.344Z,35.50
2023-02-14T17:55:10.231Z,36.03
2023-02-14T17:57:40.913Z,36.40
2023-02-14T18:00:12.208Z,38.33
2023-02-14T18:02:43.231Z,38.43
2023-02-14T18:05:12.485Z,40.40
2023-02-14T18:07:40.549Z,33.23
2023-02-14T18:10:09.230Z,35.07
2023-02-14T18:12:37.267Z,38.27
2023-02-14T18:15:06.105Z,37.87
2023-02-14T18:17:35.591Z,32.40
2023-02-14T18:20:05.369Z,31.03
2023-02-14T18:22:33.604Z,28.97
2023-02-14T18:25:01.692Z,30.53
2023-02-14T18:27:29.755Z,29.67
2023-02-14T18:29:57.813Z,30.60
2023-02-14T18:32:25.993Z,30.17
2023-02-14T18:34:55.408Z,30.40
2023-02-14T18:37:23.450Z,30.57
2023-02-14T18:39:51.479Z,31.57
2023-02-14T18:42:19.537Z,31.53
2023-02-14T18:44:47.566Z,30.80
2023-02-14T18:47:15.645Z,29.13
2023-02-14T18:49:43.665Z,28.40
2023-02-14T18:52:13.124Z,27.97
2023-02-14T18:54:41.271Z,28.70
2023-02-14T18:57:09.503Z,29.20
2023-02-14T18:59:37.584Z,29.97
2023-02-14T19:02:05.862Z,29.20
2023-02-14T19:04:33.973Z,29.37
2023-02-14T19:07:04.498Z,30.63
2023-02-14T19:09:39.019Z,32.03
2023-02-14T19:12:07.667Z,31.27
2023-02-14T19:14:35.773Z,30.67
2023-02-14T19:17:05.648Z,32.33
2023-02-14T19:19:33.801Z,31.33
2023-02-14T19:22:02.570Z,32.57
2023-02-14T19:24:30.945Z,31.73
2023-02-14T19:27:00.376Z,33.30
2023-02-14T19:29:28.482Z,33.70
2023-02-14T19:31:56.591Z,26.73
2023-02-14T19:34:28.940Z,32.10
2023-02-14T19:36:59.856Z,27.73
2023-02-14T19:39:30.658Z,29.90
2023-02-14T19:42:01.343Z,26.87
2023-02-14T19:44:31.393Z,27.60
2023-02-14T19:47:04.179Z,30.57
2023-02-14T19:49:36.339Z,30.93
2023-02-14T19:52:06.296Z,31.87
2023-02-14T19:54:39.409Z,31.83
2023-02-14T19:57:08.899Z,32.43
2023-02-14T19:59:36.970Z,24.93
2023-02-14T20:02:05.299Z,26.90
2023-02-14T20:04:33.428Z,29.13
2023-02-14T20:07:01.529Z,31.27
2023-02-14T20:09:29.615Z,35.33
2023-02-14T20:12:01.479Z,28.53
2023-02-14T20:14:40.805Z,29.50
2023-02-14T20:17:17.387Z,26.33
2023-02-14T20:19:45.485Z,29.17
2023-02-14T20:22:15.357Z,31.27
2023-02-14T20:24:43.411Z,29.10
2023-02-14T20:27:11.567Z,32.93
2023-02-14T20:29:43.292Z,31.17
2023-02-14T20:32:12.403Z,32.03
2023-02-14T20:34:40.878Z,35.10
2023-02-14T20:37:11.188Z,35.73
2023-02-14T20:39:39.586Z,35.47
2023-02-14T20:42:08.741Z,38.10
2023-02-14T20:44:36.924Z,36.43
2023-02-14T20:47:06.845Z,28.13
2023-02-14T20:49:35.893Z,32.67
2023-02-14T20:52:04.430Z,35.37
2023-02-14T20:54:32.673Z,35.30
2023-02-14T20:57:00.760Z,34.63
2023-02-14T20:59:29.076Z,35.23
2023-02-14T21:01:58.635Z,32.87
2023-02-14T21:04:28.805Z,31.50
2023-02-14T21:06:57.976Z,32.77
2023-02-14T21:09:26.358Z,26.93
2023-02-14T21:11:54.957Z,25.00
2023-02-14T21:14:23.066Z,27.97
2023-02-14T21:16:51.124Z,25.80
2023-02-14T21:19:19.845Z,25.03
2023-02-14T21:21:49.283Z,26.83
2023-02-14T21:24:17.777Z,29.20
2023-02-14T21:26:46.272Z,30.33
2023-02-14T21:29:14.328Z,33.67
2023-02-14T21:31:43.129Z,33.07
2023-02-14T21:34:11.400Z,33.03
2023-02-14T21:36:39.452Z,35.43
2023-02-14T21:39:09.380Z,36.97
2023-02-14T21:41:38.057Z,38.17
2023-02-14T21:44:07.140Z,39.17
2023-02-14T21:46:41.230Z,40.57
2023-02-14T21:49:26.762Z,41.97
2023-02-14T21:51:54.808Z,43.77
2023-02-14T21:54:24.231Z,45.37
2023-02-14T21:56:52.272Z,45.63
2023-02-14T21:59:20.312Z,46.70
2023-02-14T22:01:48.472Z,41.13
2023-02-14T22:04:16.568Z,40.23
2023-02-14T22:06:44.634Z,40.73
2023-02-14T22:09:18.740Z,40.03
2023-02-14T22:11:48.621Z,37.10
2023-02-14T22:14:16.823Z,38.53
2023-02-14T22:16:44.848Z,39.73
2023-02-14T22:19:16.219Z,37.00
2023-02-14T22:21:44.584Z,39.80
2023-02-14T22:24:12.844Z,40.17
2023-02-14T22:26:41.883Z,32.17
2023-02-14T22:29:13.358Z,36.77
2023-02-14T22:31:43.514Z,38.20
2023-02-14T22:34:14.588Z,37.00
2023-02-14T22:36:42.890Z,34.83
2023-02-14T22:39:13.784Z,33.40
2023-02-14T22:41:41.878Z,39.43
2023-02-14T22:44:11.463Z,35.77
2023-02-14T22:46:39.616Z,39.23
2023-02-14T22:49:08.310Z,41.13
2023-02-14T22:51:38.235Z,34.37
2023-02-14T22:54:08.524Z,28.73
2023-02-14T22:56:38.911Z,28.17
2023-02-14T22:59:09.154Z,28.63
2023-02-14T23:01:38.639Z,25.20
2023-02-14T23:04:07.074Z,25.17
2023-02-14T23:06:37.226Z,29.50
2023-02-14T23:09:06.917Z,29.63
2023-02-14T23:11:37.878Z,33.13
2023-02-14T23:14:24.888Z,35.50
2023-02-14T23:17:12.092Z,38.30
2023-02-14T23:19:57.448Z,24.37
2023-02-14T23:22:28.081Z,35.53
2023-02-14T23:24:58.371Z,26.70
2023-02-14T23:27:30.561Z,22.83
2023-02-14T23:29:58.732Z,20.53
2023-02-14T23:32:28.288Z,20.57
2023-02-14T23:34:56.396Z,18.83
2023-02-14T23:37:24.502Z,24.07
2023-02-14T23:39:52.555Z,25.83
2023-02-14T23:42:20.633Z,21.13
2023-02-14T23:44:49.521Z,20.53
2023-02-14T23:47:18.014Z,19.90
2023-02-14T23:49:47.590Z,23.63
2023-02-14T23:52:15.662Z,23.23
2023-02-14T23:54:43.723Z,23.70
2023-02-14T23:57:12.041Z,22.23
2023-02-14T23:59:40.086Z,23.60
